sensor_id;sensor_type;location;lat;lon;timestamp;P1;durP1;ratioP1;P2;durP2;ratioP2
18280;SDS011;9266;51.132;17.062;2023-04-24T00:01:12;16.37;;;12.50;;
18280;SDS011;9266;51.132;17.062;2023-04-24T00:03:40;15.93;;;12.97;;
18280;SDS011;9266;51.132;17.062;2023-04-24T00:06:07;17.53;;;12.67;;
18280;SDS011;9266;51.132;17.062;2023-04-24T00:08:34;14.33;;;12.70;;
18280;SDS011;9266;51.132;17.062;2023-04-24T00:11:01;14.20;;;12.70;;
18280;SDS011;9266;51.132;17.062;2023-04-24T00:13:28;14.10;;;12.67;;
18280;SDS011;9266;51.132;17.062;2023-04-24T00:15:55;14.87;;;12.53;;
18280;SDS011;9266;51.132;17.062;2023-04-24T00:18:24;16.10;;;13.43;;
18280;SDS011;9266;51.132;17.062;2023-04-24T00:20:50;14.87;;;13.30;;
18280;SDS011;9266;51.132;17.062;2023-04-24T00:23:18;17.87;;;13.07;;
18280;SDS011;9266;51.132;17.062;2023-04-24T00:25:45;18.13;;;13.90;;
18280;SDS011;9266;51.132;17.062;2023-04-24T00:28:12;17.53;;;14.30;;
18280;SDS011;9266;51.132;17.062;2023-04-24T00:30:39;18.67;;;13.37;;
18280;SDS011;9266;51.132;17.062;2023-04-24T00:33:06;14.60;;;13.10;;
18280;SDS011;9266;51.132;17.062;2023-04-24T00:35:35;17.13;;;13.30;;
18280;SDS011;9266;51.132;17.062;2023-04-24T00:38:02;16.43;;;13.63;;
18280;SDS011;9266;51.132;17.062;2023-04-24T00:40:29;15.00;;;13.13;;
18280;SDS011;9266;51.132;17.062;2023-04-24T00:42:56;17.30;;;13.20;;
18280;SDS011;9266;51.132;17.062;2023-04-24T00:45:23;14.67;;;13.10;;
18280;SDS011;9266;51.132;17.062;2023-04-24T00:47:50;16.40;;;14.23;;
18280;SDS011;9266;51.132;17.062;2023-04-24T00:50:20;17.53;;;15.50;;
18280;SDS011;9266;51.132;17.062;2023-04-24T00:52:49;19.33;;;15.00;;
18280;SDS011;9266;51.132;17.062;2023-04-24T00:55:16;21.20;;;17.30;;
18280;SDS011;9266;51.132;17.062;2023-04-24T00:57:43;23.57;;;17.30;;
18280;SDS011;9266;51.132;17.062;2023-04-24T01:00:11;19.07;;;15.93;;
18280;SDS011;9266;51.132;17.062;2023-04-24T01:02:40;20.97;;;16.27;;
18280;SDS011;9266;51.132;17.062;2023-04-24T01:05:10;20.83;;;17.07;;
18280;SDS011;9266;51.132;17.062;2023-04-24T01:07:38;20.57;;;17.00;;
18280;SDS011;9266;51.132;17.062;2023-04-24T01:10:10;22.33;;;17.67;;
18280;SDS011;9266;51.132;17.062;2023-04-24T01:12:39;21.90;;;18.50;;
18280;SDS011;9266;51.132;17.062;2023-04-24T01:15:07;22.10;;;17.77;;
18280;SDS011;9266;51.132;17.062;2023-04-24T01:17:35;21.43;;;16.57;;
18280;SDS011;9266;51.132;17.062;2023-04-24T01:20:03;22.90;;;17.07;;
18280;SDS011;9266;51.132;17.062;2023-04-24T01:22:33;21.47;;;17.60;;
18280;SDS011;9266;51.132;17.062;2023-04-24T01:25:00;20.60;;;17.50;;
18280;SDS011;9266;51.132;17.062;2023-04-24T01:27:27;26.07;;;17.73;;
18280;SDS011;9266;51.132;17.062;2023-04-24T01:29:54;22.47;;;19.00;;
18280;SDS011;9266;51.132;17.062;2023-04-24T01:32:21;20.90;;;17.30;;
18280;SDS011;9266;51.132;17.062;2023-04-24T01:34:49;21.17;;;17.43;;
18280;SDS011;9266;51.132;17.062;2023-04-24T01:37:17;21.90;;;18.00;;
18280;SDS011;9266;51.132;17.062;2023-04-24T01:39:46;21.67;;;17.00;;
18280;SDS011;9266;51.132;17.062;2023-04-24T01:42:13;20.97;;;17.40;;
18280;SDS011;9266;51.132;17.062;2023-04-24T01:44:40;19.57;;;17.47;;
18280;SDS011;9266;51.132;17.062;2023-04-24T01:47:08;20.40;;;16.80;;
18280;SDS011;9266;51.132;17.062;2023-04-24T01:49:35;21.13;;;17.37;;
18280;SDS011;9266;51.132;17.062;2023-04-24T01:52:03;24.23;;;17.33;;
18280;SDS011;9266;51.132;17.062;2023-04-24T01:54:30;21.10;;;16.83;;
18280;SDS011;9266;51.132;17.062;2023-04-24T01:56:59;19.40;;;17.03;;
18280;SDS011;9266;51.132;17.062;2023-04-24T01:59:27;20.70;;;17.17;;
18280;SDS011;9266;51.132;17.062;2023-04-24T02:01:54;20.80;;;17.70;;
18280;SDS011;9266;51.132;17.062;2023-04-24T02:04:21;19.93;;;17.53;;
18280;SDS011;9266;51.132;17.062;2023-04-24T02:06:49;20.37;;;17.07;;
18280;SDS011;9266;51.132;17.062;2023-04-24T02:09:16;22.60;;;18.13;;
18280;SDS011;9266;51.132;17.062;2023-04-24T02:11:43;19.03;;;17.07;;
18280;SDS011;9266;51.132;17.062;2023-04-24T02:14:11;20.50;;;17.37;;
18280;SDS011;9266;51.132;17.062;2023-04-24T02:16:38;24.03;;;17.87;;
18280;SDS011;9266;51.132;17.062;2023-04-24T02:19:05;22.40;;;17.43;;
18280;SDS011;9266;51.132;17.062;2023-04-24T02:21:32;20.27;;;18.13;;
18280;SDS011;9266;51.132;17.062;2023-04-24T02:23:59;22.07;;;16.50;;
18280;SDS011;9266;51.132;17.062;2023-04-24T02:26:26;19.23;;;17.13;;
18280;SDS011;9266;51.132;17.062;2023-04-24T02:28:53;24.33;;;17.60;;
18280;SDS011;9266;51.132;17.062;2023-04-24T02:31:22;21.47;;;17.57;;
18280;SDS011;9266;51.132;17.062;2023-04-24T02:33:49;24.20;;;19.07;;
18280;SDS011;9266;51.132;17.062;2023-04-24T02:36:16;21.93;;;18.97;;
18280;SDS011;9266;51.132;17.062;2023-04-24T02:38:43;22.13;;;19.23;;
18280;SDS011;9266;51.132;17.062;2023-04-24T02:41:10;24.43;;;19.17;;
18280;SDS011;9266;51.132;17.062;2023-04-24T02:43:37;25.13;;;20.37;;
18280;SDS011;9266;51.132;17.062;2023-04-24T02:46:04;23.20;;;20.73;;
18280;SDS011;9266;51.132;17.062;2023-04-24T02:48:33;26.13;;;19.70;;
18280;SDS011;9266;51.132;17.062;2023-04-24T02:51:00;24.23;;;21.10;;
18280;SDS011;9266;51.132;17.062;2023-04-24T02:53:27;23.00;;;19.63;;
18280;SDS011;9266;51.132;17.062;2023-04-24T02:55:55;23.60;;;19.33;;
18280;SDS011;9266;51.132;17.062;2023-04-24T02:58:22;24.63;;;20.40;;
18280;SDS011;9266;51.132;17.062;2023-04-24T03:00:49;22.57;;;20.07;;
18280;SDS011;9266;51.132;17.062;2023-04-24T03:03:21;28.37;;;21.53;;
18280;SDS011;9266;51.132;17.062;2023-04-24T03:05:50;23.93;;;21.33;;
18280;SDS011;9266;51.132;17.062;2023-04-24T03:08:17;25.77;;;20.80;;
18280;SDS011;9266;51.132;17.062;2023-04-24T03:10:44;26.43;;;22.20;;
18280;SDS011;9266;51.132;17.062;2023-04-24T03:13:11;23.67;;;21.23;;
18280;SDS011;9266;51.132;17.062;2023-04-24T03:15:38;26.93;;;22.20;;
18280;SDS011;9266;51.132;17.062;2023-04-24T03:18:05;23.43;;;20.93;;
18280;SDS011;9266;51.132;17.062;2023-04-24T03:20:33;26.27;;;19.83;;
18280;SDS011;9266;51.132;17.062;2023-04-24T03:23:03;26.73;;;21.30;;
18280;SDS011;9266;51.132;17.062;2023-04-24T03:25:30;24.23;;;21.23;;
18280;SDS011;9266;51.132;17.062;2023-04-24T03:27:57;33.60;;;23.03;;
18280;SDS011;9266;51.132;17.062;2023-04-24T03:30:24;24.13;;;20.57;;
18280;SDS011;9266;51.132;17.062;2023-04-24T03:32:52;23.07;;;20.70;;
18280;SDS011;9266;51.132;17.062;2023-04-24T03:35:19;23.13;;;20.57;;
18280;SDS011;9266;51.132;17.062;2023-04-24T03:37:47;24.93;;;21.00;;
18280;SDS011;9266;51.132;17.062;2023-04-24T03:40:15;21.93;;;19.63;;
18280;SDS011;9266;51.132;17.062;2023-04-24T03:42:43;22.80;;;20.37;;
18280;SDS011;9266;51.132;17.062;2023-04-24T03:45:10;24.97;;;21.13;;
18280;SDS011;9266;51.132;17.062;2023-04-24T03:47:37;23.73;;;21.33;;
18280;SDS011;9266;51.132;17.062;2023-04-24T03:50:04;26.60;;;22.93;;
18280;SDS011;9266;51.132;17.062;2023-04-24T03:52:32;24.70;;;20.93;;
18280;SDS011;9266;51.132;17.062;2023-04-24T03:54:59;22.47;;;20.07;;
18280;SDS011;9266;51.132;17.062;2023-04-24T03:57:27;23.23;;;20.83;;
18280;SDS011;9266;51.132;17.062;2023-04-24T03:59:54;24.67;;;21.90;;
18280;SDS011;9266;51.132;17.062;2023-04-24T04:02:21;23.50;;;21.10;;
18280;SDS011;9266;51.132;17.062;2023-04-24T04:04:48;23.43;;;20.93;;
18280;SDS011;9266;51.132;17.062;2023-04-24T04:07:15;22.53;;;20.33;;
18280;SDS011;9266;51.132;17.062;2023-04-24T04:09:42;21.87;;;19.57;;
18280;SDS011;9266;51.132;17.062;2023-04-24T04:12:09;21.73;;;19.40;;
18280;SDS011;9266;51.132;17.062;2023-04-24T04:14:38;22.23;;;19.93;;
18280;SDS011;9266;51.132;17.062;2023-04-24T04:17:05;23.90;;;21.13;;
18280;SDS011;9266;51.132;17.062;2023-04-24T04:19:32;26.17;;;21.70;;
18280;SDS011;9266;51.132;17.062;2023-04-24T04:22:00;23.73;;;20.17;;
18280;SDS011;9266;51.132;17.062;2023-04-24T04:24:27;23.60;;;20.97;;
18280;SDS011;9266;51.132;17.062;2023-04-24T04:26:54;21.17;;;19.03;;
18280;SDS011;9266;51.132;17.062;2023-04-24T04:29:21;22.70;;;20.30;;
18280;SDS011;9266;51.132;17.062;2023-04-24T04:31:50;24.87;;;19.83;;
18280;SDS011;9266;51.132;17.062;2023-04-24T04:34:17;24.20;;;21.23;;
18280;SDS011;9266;51.132;17.062;2023-04-24T04:36:44;25.13;;;22.30;;
18280;SDS011;9266;51.132;17.062;2023-04-24T04:39:11;21.53;;;19.13;;
18280;SDS011;9266;51.132;17.062;2023-04-24T04:41:40;20.30;;;18.23;;
18280;SDS011;9266;51.132;17.062;2023-04-24T04:44:07;18.27;;;16.37;;
18280;SDS011;9266;51.132;17.062;2023-04-24T04:46:34;16.07;;;14.33;;
18280;SDS011;9266;51.132;17.062;2023-04-24T04:49:04;18.03;;;14.70;;
18280;SDS011;9266;51.132;17.062;2023-04-24T04:51:33;15.87;;;13.30;;
18280;SDS011;9266;51.132;17.062;2023-04-24T04:54:00;15.17;;;13.13;;
18280;SDS011;9266;51.132;17.062;2023-04-24T04:56:27;15.57;;;13.93;;
18280;SDS011;9266;51.132;17.062;2023-04-24T04:58:54;15.77;;;13.50;;
18280;SDS011;9266;51.132;17.062;2023-04-24T05:01:21;16.03;;;13.77;;
18280;SDS011;9266;51.132;17.062;2023-04-24T05:03:49;16.47;;;13.33;;
18280;SDS011;9266;51.132;17.062;2023-04-24T05:06:17;14.87;;;12.83;;
18280;SDS011;9266;51.132;17.062;2023-04-24T05:08:44;15.27;;;13.30;;
18280;SDS011;9266;51.132;17.062;2023-04-24T05:11:11;13.73;;;12.27;;
18280;SDS011;9266;51.132;17.062;2023-04-24T05:13:38;14.57;;;11.90;;
18280;SDS011;9266;51.132;17.062;2023-04-24T05:16:05;17.07;;;12.80;;
18280;SDS011;9266;51.132;17.062;2023-04-24T05:18:32;13.73;;;12.17;;
18280;SDS011;9266;51.132;17.062;2023-04-24T05:20:59;14.47;;;12.03;;
18280;SDS011;9266;51.132;17.062;2023-04-24T05:23:28;14.03;;;11.60;;
18280;SDS011;9266;51.132;17.062;2023-04-24T05:25:55;15.13;;;11.87;;
18280;SDS011;9266;51.132;17.062;2023-04-24T05:28:23;13.30;;;11.17;;
18280;SDS011;9266;51.132;17.062;2023-04-24T05:30:53;14.83;;;11.53;;
18280;SDS011;9266;51.132;17.062;2023-04-24T05:33:20;11.57;;;10.37;;
18280;SDS011;9266;51.132;17.062;2023-04-24T05:35:47;14.03;;;11.00;;
18280;SDS011;9266;51.132;17.062;2023-04-24T05:38:14;15.03;;;11.63;;
18280;SDS011;9266;51.132;17.062;2023-04-24T05:40:44;12.03;;;10.73;;
18280;SDS011;9266;51.132;17.062;2023-04-24T05:43:11;10.70;;;9.60;;
18280;SDS011;9266;51.132;17.062;2023-04-24T05:45:38;11.13;;;9.93;;
18280;SDS011;9266;51.132;17.062;2023-04-24T05:48:05;12.70;;;10.40;;
18280;SDS011;9266;51.132;17.062;2023-04-24T05:50:32;11.87;;;9.47;;
18280;SDS011;9266;51.132;17.062;2023-04-24T05:52:59;10.17;;;9.17;;
18280;SDS011;9266;51.132;17.062;2023-04-24T05:58:50;9.90;;;8.90;;
18280;SDS011;9266;51.132;17.062;2023-04-24T06:01:17;12.13;;;9.70;;
18280;SDS011;9266;51.132;17.062;2023-04-24T06:03:44;12.80;;;9.17;;
18280;SDS011;9266;51.132;17.062;2023-04-24T06:06:11;12.37;;;9.10;;
18280;SDS011;9266;51.132;17.062;2023-04-24T06:08:38;9.80;;;8.30;;
18280;SDS011;9266;51.132;17.062;2023-04-24T06:11:07;10.20;;;8.47;;
18280;SDS011;9266;51.132;17.062;2023-04-24T06:13:34;10.70;;;8.70;;
18280;SDS011;9266;51.132;17.062;2023-04-24T06:16:02;11.37;;;9.67;;
18280;SDS011;9266;51.132;17.062;2023-04-24T06:18:29;12.27;;;9.33;;
18280;SDS011;9266;51.132;17.062;2023-04-24T06:20:56;11.50;;;9.67;;
18280;SDS011;9266;51.132;17.062;2023-04-24T06:23:24;14.90;;;9.63;;
18280;SDS011;9266;51.132;17.062;2023-04-24T06:25:51;9.37;;;8.20;;
18280;SDS011;9266;51.132;17.062;2023-04-24T06:28:18;10.13;;;7.50;;
18280;SDS011;9266;51.132;17.062;2023-04-24T06:30:45;10.07;;;8.70;;
18280;SDS011;9266;51.132;17.062;2023-04-24T06:33:13;9.93;;;8.27;;
18280;SDS011;9266;51.132;17.062;2023-04-24T06:35:40;10.60;;;7.63;;
18280;SDS011;9266;51.132;17.062;2023-04-24T06:38:07;9.93;;;8.03;;
18280;SDS011;9266;51.132;17.062;2023-04-24T06:40:34;10.07;;;8.10;;
18280;SDS011;9266;51.132;17.062;2023-04-24T06:43:01;16.40;;;7.97;;
18280;SDS011;9266;51.132;17.062;2023-04-24T06:45:28;12.03;;;7.87;;
18280;SDS011;9266;51.132;17.062;2023-04-24T06:47:55;11.37;;;8.47;;
18280;SDS011;9266;51.132;17.062;2023-04-24T06:50:24;13.23;;;8.20;;
18280;SDS011;9266;51.132;17.062;2023-04-24T06:52:51;13.57;;;8.67;;
18280;SDS011;9266;51.132;17.062;2023-04-24T06:55:18;11.57;;;8.43;;
18280;SDS011;9266;51.132;17.062;2023-04-24T06:57:45;12.60;;;8.33;;
18280;SDS011;9266;51.132;17.062;2023-04-24T07:00:12;10.30;;;7.30;;
18280;SDS011;9266;51.132;17.062;2023-04-24T07:02:40;12.97;;;8.10;;
18280;SDS011;9266;51.132;17.062;2023-04-24T07:05:07;11.57;;;7.47;;
18280;SDS011;9266;51.132;17.062;2023-04-24T07:07:36;8.93;;;7.53;;
18280;SDS011;9266;51.132;17.062;2023-04-24T07:10:05;14.50;;;8.17;;
18280;SDS011;9266;51.132;17.062;2023-04-24T07:12:33;18.10;;;8.97;;
18280;SDS011;9266;51.132;17.062;2023-04-24T07:15:00;14.57;;;8.60;;
18280;SDS011;9266;51.132;17.062;2023-04-24T07:17:28;11.67;;;8.20;;
18280;SDS011;9266;51.132;17.062;2023-04-24T07:19:55;14.77;;;8.90;;
18280;SDS011;9266;51.132;17.062;2023-04-24T07:22:22;14.23;;;8.77;;
18280;SDS011;9266;51.132;17.062;2023-04-24T07:24:50;22.90;;;9.07;;
18280;SDS011;9266;51.132;17.062;2023-04-24T07:27:17;14.40;;;8.03;;
18280;SDS011;9266;51.132;17.062;2023-04-24T07:29:44;13.27;;;8.80;;
18280;SDS011;9266;51.132;17.062;2023-04-24T07:32:11;12.13;;;8.30;;
18280;SDS011;9266;51.132;17.062;2023-04-24T07:34:38;15.70;;;9.00;;
18280;SDS011;9266;51.132;17.062;2023-04-24T07:37:05;19.40;;;8.10;;
18280;SDS011;9266;51.132;17.062;2023-04-24T07:39:32;12.03;;;8.40;;
18280;SDS011;9266;51.132;17.062;2023-04-24T07:42:01;13.80;;;8.13;;
18280;SDS011;9266;51.132;17.062;2023-04-24T07:44:28;12.17;;;7.87;;
18280;SDS011;9266;51.132;17.062;2023-04-24T07:46:55;12.80;;;8.33;;
18280;SDS011;9266;51.132;17.062;2023-04-24T07:49:22;14.23;;;10.83;;
18280;SDS011;9266;51.132;17.062;2023-04-24T07:51:49;22.27;;;9.53;;
18280;SDS011;9266;51.132;17.062;2023-04-24T07:54:16;11.93;;;7.73;;
18280;SDS011;9266;51.132;17.062;2023-04-24T07:56:43;11.10;;;7.50;;
18280;SDS011;9266;51.132;17.062;2023-04-24T07:59:12;12.33;;;7.43;;
18280;SDS011;9266;51.132;17.062;2023-04-24T08:01:39;15.20;;;8.57;;
18280;SDS011;9266;51.132;17.062;2023-04-24T08:04:06;18.77;;;9.10;;
18280;SDS011;9266;51.132;17.062;2023-04-24T08:06:33;11.23;;;7.97;;
18280;SDS011;9266;51.132;17.062;2023-04-24T08:09:00;10.93;;;6.90;;
18280;SDS011;9266;51.132;17.062;2023-04-24T08:11:27;8.00;;;6.83;;
18280;SDS011;9266;51.132;17.062;2023-04-24T08:13:54;9.20;;;7.00;;
18280;SDS011;9266;51.132;17.062;2023-04-24T08:16:22;9.67;;;7.10;;
18280;SDS011;9266;51.132;17.062;2023-04-24T08:18:49;7.77;;;7.00;;
18280;SDS011;9266;51.132;17.062;2023-04-24T08:21:16;7.90;;;7.10;;
18280;SDS011;9266;51.132;17.062;2023-04-24T08:23:44;12.73;;;7.47;;
18280;SDS011;9266;51.132;17.062;2023-04-24T08:26:11;7.73;;;6.93;;
18280;SDS011;9266;51.132;17.062;2023-04-24T08:28:39;7.57;;;6.77;;
18280;SDS011;9266;51.132;17.062;2023-04-24T08:31:06;9.83;;;7.30;;
18280;SDS011;9266;51.132;17.062;2023-04-24T08:33:34;7.60;;;6.90;;
18280;SDS011;9266;51.132;17.062;2023-04-24T08:36:01;7.90;;;7.10;;
18280;SDS011;9266;51.132;17.062;2023-04-24T08:38:29;9.10;;;7.50;;
18280;SDS011;9266;51.132;17.062;2023-04-24T08:40:56;11.20;;;7.97;;
18280;SDS011;9266;51.132;17.062;2023-04-24T08:43:24;9.43;;;8.00;;
18280;SDS011;9266;51.132;17.062;2023-04-24T08:45:52;8.07;;;7.23;;
18280;SDS011;9266;51.132;17.062;2023-04-24T08:48:21;9.33;;;8.33;;
18280;SDS011;9266;51.132;17.062;2023-04-24T08:50:50;10.20;;;7.80;;
18280;SDS011;9266;51.132;17.062;2023-04-24T08:53:17;10.63;;;8.37;;
18280;SDS011;9266;51.132;17.062;2023-04-24T08:55:46;9.53;;;8.17;;
18280;SDS011;9266;51.132;17.062;2023-04-24T08:58:15;8.10;;;7.30;;
18280;SDS011;9266;51.132;17.062;2023-04-24T09:00:42;9.30;;;8.07;;
18280;SDS011;9266;51.132;17.062;2023-04-24T09:03:12;7.40;;;6.70;;
18280;SDS011;9266;51.132;17.062;2023-04-24T09:05:40;9.13;;;7.13;;
18280;SDS011;9266;51.132;17.062;2023-04-24T09:08:12;8.80;;;7.03;;
18280;SDS011;9266;51.132;17.062;2023-04-24T09:10:40;8.23;;;6.97;;
18280;SDS011;9266;51.132;17.062;2023-04-24T09:13:07;8.13;;;6.27;;
18280;SDS011;9266;51.132;17.062;2023-04-24T09:15:35;9.37;;;6.10;;
18280;SDS011;9266;51.132;17.062;2023-04-24T09:18:02;8.93;;;6.50;;
18280;SDS011;9266;51.132;17.062;2023-04-24T09:20:30;7.60;;;6.83;;
18280;SDS011;9266;51.132;17.062;2023-04-24T09:22:57;7.90;;;6.10;;
18280;SDS011;9266;51.132;17.062;2023-04-24T09:25:30;6.23;;;5.63;;
18280;SDS011;9266;51.132;17.062;2023-04-24T09:28:00;7.23;;;5.90;;
18280;SDS011;9266;51.132;17.062;2023-04-24T09:30:28;7.17;;;6.43;;
18280;SDS011;9266;51.132;17.062;2023-04-24T09:33:10;7.07;;;6.33;;
18280;SDS011;9266;51.132;17.062;2023-04-24T09:35:40;6.63;;;5.53;;
18280;SDS011;9266;51.132;17.062;2023-04-24T09:38:09;9.50;;;6.57;;
18280;SDS011;9266;51.132;17.062;2023-04-24T09:40:37;10.97;;;6.93;;
18280;SDS011;9266;51.132;17.062;2023-04-24T09:43:05;15.00;;;8.50;;
18280;SDS011;9266;51.132;17.062;2023-04-24T09:45:37;9.30;;;7.50;;
18280;SDS011;9266;51.132;17.062;2023-04-24T09:48:05;13.40;;;8.00;;
18280;SDS011;9266;51.132;17.062;2023-04-24T09:50:35;9.30;;;7.10;;
18280;SDS011;9266;51.132;17.062;2023-04-24T09:53:03;7.30;;;6.47;;
18280;SDS011;9266;51.132;17.062;2023-04-24T09:55:33;7.97;;;7.17;;
18280;SDS011;9266;51.132;17.062;2023-04-24T09:58:11;8.77;;;7.07;;
18280;SDS011;9266;51.132;17.062;2023-04-24T10:00:39;9.20;;;6.70;;
18280;SDS011;9266;51.132;17.062;2023-04-24T10:03:06;8.53;;;6.43;;
18280;SDS011;9266;51.132;17.062;2023-04-24T10:05:34;7.77;;;6.97;;
18280;SDS011;9266;51.132;17.062;2023-04-24T10:08:04;8.37;;;6.37;;
18280;SDS011;9266;51.132;17.062;2023-04-24T10:10:33;13.73;;;7.20;;
18280;SDS011;9266;51.132;17.062;2023-04-24T10:13:04;7.23;;;6.50;;
18280;SDS011;9266;51.132;17.062;2023-04-24T10:15:33;10.93;;;6.60;;
18280;SDS011;9266;51.132;17.062;2023-04-24T10:18:00;10.50;;;6.60;;
18280;SDS011;9266;51.132;17.062;2023-04-24T10:20:31;8.77;;;6.93;;
18280;SDS011;9266;51.132;17.062;2023-04-24T10:22:59;9.33;;;6.73;;
18280;SDS011;9266;51.132;17.062;2023-04-24T10:25:27;14.87;;;6.60;;
18280;SDS011;9266;51.132;17.062;2023-04-24T10:27:56;10.70;;;6.90;;
18280;SDS011;9266;51.132;17.062;2023-04-24T10:30:27;10.27;;;7.17;;
18280;SDS011;9266;51.132;17.062;2023-04-24T10:32:55;9.47;;;7.23;;
18280;SDS011;9266;51.132;17.062;2023-04-24T10:35:22;12.10;;;8.63;;
18280;SDS011;9266;51.132;17.062;2023-04-24T10:37:54;11.03;;;7.40;;
18280;SDS011;9266;51.132;17.062;2023-04-24T10:40:25;14.20;;;7.97;;
18280;SDS011;9266;51.132;17.062;2023-04-24T10:42:54;9.13;;;6.50;;
18280;SDS011;9266;51.132;17.062;2023-04-24T10:45:23;9.80;;;7.10;;
18280;SDS011;9266;51.132;17.062;2023-04-24T10:47:52;10.90;;;7.00;;
18280;SDS011;9266;51.132;17.062;2023-04-24T10:50:23;7.30;;;6.60;;
18280;SDS011;9266;51.132;17.062;2023-04-24T10:52:50;8.77;;;6.07;;
18280;SDS011;9266;51.132;17.062;2023-04-24T10:58:11;11.00;;;6.83;;
18280;SDS011;9266;51.132;17.062;2023-04-24T11:00:40;7.90;;;6.57;;
18280;SDS011;9266;51.132;17.062;2023-04-24T11:03:24;11.67;;;7.50;;
18280;SDS011;9266;51.132;17.062;2023-04-24T11:05:55;14.40;;;6.93;;
18280;SDS011;9266;51.132;17.062;2023-04-24T11:08:25;11.90;;;6.83;;
18280;SDS011;9266;51.132;17.062;2023-04-24T11:11:00;13.63;;;5.90;;
18280;SDS011;9266;51.132;17.062;2023-04-24T11:16:29;14.53;;;7.00;;
18280;SDS011;9266;51.132;17.062;2023-04-24T11:19:03;10.10;;;7.27;;
18280;SDS011;9266;51.132;17.062;2023-04-24T11:21:32;9.70;;;6.77;;
18280;SDS011;9266;51.132;17.062;2023-04-24T11:24:25;9.40;;;6.50;;
18280;SDS011;9266;51.132;17.062;2023-04-24T11:26:55;12.33;;;7.73;;
18280;SDS011;9266;51.132;17.062;2023-04-24T11:29:24;10.23;;;6.83;;
18280;SDS011;9266;51.132;17.062;2023-04-24T11:32:14;10.43;;;7.30;;
18280;SDS011;9266;51.132;17.062;2023-04-24T11:34:47;12.10;;;8.70;;
18280;SDS011;9266;51.132;17.062;2023-04-24T11:37:15;8.43;;;7.60;;
18280;SDS011;9266;51.132;17.062;2023-04-24T11:39:42;8.20;;;7.27;;
18280;SDS011;9266;51.132;17.062;2023-04-24T11:42:09;7.93;;;6.90;;
18280;SDS011;9266;51.132;17.062;2023-04-24T11:44:36;8.63;;;7.03;;
18280;SDS011;9266;51.132;17.062;2023-04-24T11:47:04;10.03;;;7.27;;
18280;SDS011;9266;51.132;17.062;2023-04-24T11:49:32;9.23;;;7.40;;
18280;SDS011;9266;51.132;17.062;2023-04-24T11:52:00;8.97;;;7.70;;
18280;SDS011;9266;51.132;17.062;2023-04-24T11:54:27;7.77;;;6.43;;
18280;SDS011;9266;51.132;17.062;2023-04-24T11:56:55;9.53;;;7.17;;
18280;SDS011;9266;51.132;17.062;2023-04-24T11:59:22;8.77;;;7.60;;
18280;SDS011;9266;51.132;17.062;2023-04-24T12:01:49;6.60;;;6.00;;
18280;SDS011;9266;51.132;17.062;2023-04-24T12:04:17;7.80;;;7.00;;
18280;SDS011;9266;51.132;17.062;2023-04-24T12:07:01;8.67;;;6.40;;
18280;SDS011;9266;51.132;17.062;2023-04-24T12:09:28;7.20;;;6.17;;
18280;SDS011;9266;51.132;17.062;2023-04-24T12:12:06;8.63;;;6.03;;
18280;SDS011;9266;51.132;17.062;2023-04-24T12:14:33;9.10;;;6.80;;
18280;SDS011;9266;51.132;17.062;2023-04-24T12:17:07;7.83;;;7.03;;
18280;SDS011;9266;51.132;17.062;2023-04-24T12:19:35;11.73;;;8.20;;
18280;SDS011;9266;51.132;17.062;2023-04-24T12:22:04;8.97;;;7.87;;
18280;SDS011;9266;51.132;17.062;2023-04-24T12:24:32;14.50;;;8.80;;
18280;SDS011;9266;51.132;17.062;2023-04-24T12:26:59;10.67;;;8.80;;
18280;SDS011;9266;51.132;17.062;2023-04-24T12:29:27;8.57;;;6.57;;
18280;SDS011;9266;51.132;17.062;2023-04-24T12:31:54;8.23;;;7.27;;
18280;SDS011;9266;51.132;17.062;2023-04-24T12:34:21;7.90;;;6.13;;
18280;SDS011;9266;51.132;17.062;2023-04-24T12:36:50;8.70;;;6.30;;
18280;SDS011;9266;51.132;17.062;2023-04-24T12:39:18;6.20;;;5.60;;
18280;SDS011;9266;51.132;17.062;2023-04-24T12:41:54;7.67;;;6.53;;
18280;SDS011;9266;51.132;17.062;2023-04-24T12:44:28;8.90;;;6.90;;
18280;SDS011;9266;51.132;17.062;2023-04-24T12:46:57;7.20;;;6.50;;
18280;SDS011;9266;51.132;17.062;2023-04-24T12:49:24;8.00;;;6.53;;
18280;SDS011;9266;51.132;17.062;2023-04-24T12:51:51;10.00;;;7.73;;
18280;SDS011;9266;51.132;17.062;2023-04-24T12:54:20;10.93;;;7.03;;
18280;SDS011;9266;51.132;17.062;2023-04-24T12:56:48;8.67;;;6.80;;
18280;SDS011;9266;51.132;17.062;2023-04-24T12:59:15;7.77;;;7.03;;
18280;SDS011;9266;51.132;17.062;2023-04-24T13:01:42;7.57;;;5.53;;
18280;SDS011;9266;51.132;17.062;2023-04-24T13:04:09;6.53;;;5.93;;
18280;SDS011;9266;51.132;17.062;2023-04-24T13:06:36;6.20;;;5.60;;
18280;SDS011;9266;51.132;17.062;2023-04-24T13:09:03;7.10;;;6.40;;
18280;SDS011;9266;51.132;17.062;2023-04-24T13:11:31;7.70;;;6.60;;
18280;SDS011;9266;51.132;17.062;2023-04-24T13:13:58;7.93;;;6.83;;
18280;SDS011;9266;51.132;17.062;2023-04-24T13:16:25;7.97;;;6.80;;
18280;SDS011;9266;51.132;17.062;2023-04-24T13:18:53;11.70;;;7.47;;
18280;SDS011;9266;51.132;17.062;2023-04-24T13:21:20;9.17;;;7.10;;
18280;SDS011;9266;51.132;17.062;2023-04-24T13:23:47;7.53;;;5.93;;
18280;SDS011;9266;51.132;17.062;2023-04-24T13:26:14;5.60;;;3.90;;
18280;SDS011;9266;51.132;17.062;2023-04-24T13:28:43;3.30;;;3.00;;
18280;SDS011;9266;51.132;17.062;2023-04-24T13:31:10;4.77;;;3.20;;
18280;SDS011;9266;51.132;17.062;2023-04-24T13:33:37;3.00;;;2.60;;
18280;SDS011;9266;51.132;17.062;2023-04-24T13:36:05;3.00;;;2.70;;
18280;SDS011;9266;51.132;17.062;2023-04-24T13:38:32;3.53;;;2.50;;
18280;SDS011;9266;51.132;17.062;2023-04-24T13:40:59;3.00;;;2.20;;
18280;SDS011;9266;51.132;17.062;2023-04-24T13:43:26;2.33;;;2.10;;
18280;SDS011;9266;51.132;17.062;2023-04-24T13:45:54;4.13;;;2.23;;
18280;SDS011;9266;51.132;17.062;2023-04-24T13:48:21;4.37;;;2.40;;
18280;SDS011;9266;51.132;17.062;2023-04-24T13:50:48;4.70;;;3.17;;
18280;SDS011;9266;51.132;17.062;2023-04-24T13:53:15;3.10;;;2.30;;
18280;SDS011;9266;51.132;17.062;2023-04-24T13:55:42;4.57;;;2.27;;
18280;SDS011;9266;51.132;17.062;2023-04-24T13:58:09;3.87;;;2.40;;
18280;SDS011;9266;51.132;17.062;2023-04-24T14:00:36;2.70;;;2.10;;
18280;SDS011;9266;51.132;17.062;2023-04-24T14:03:05;3.93;;;2.07;;
18280;SDS011;9266;51.132;17.062;2023-04-24T14:05:32;3.77;;;2.37;;
18280;SDS011;9266;51.132;17.062;2023-04-24T14:07:59;3.63;;;2.07;;
18280;SDS011;9266;51.132;17.062;2023-04-24T14:10:26;2.40;;;1.90;;
18280;SDS011;9266;51.132;17.062;2023-04-24T14:12:53;6.87;;;3.30;;
18280;SDS011;9266;51.132;17.062;2023-04-24T14:15:20;2.97;;;2.63;;
18280;SDS011;9266;51.132;17.062;2023-04-24T14:17:47;3.87;;;2.83;;
18280;SDS011;9266;51.132;17.062;2023-04-24T14:20:16;7.57;;;3.10;;
18280;SDS011;9266;51.132;17.062;2023-04-24T14:22:43;2.20;;;2.00;;
18280;SDS011;9266;51.132;17.062;2023-04-24T14:25:10;4.23;;;2.50;;
18280;SDS011;9266;51.132;17.062;2023-04-24T14:27:37;5.17;;;3.00;;
18280;SDS011;9266;51.132;17.062;2023-04-24T14:30:05;6.77;;;3.50;;
18280;SDS011;9266;51.132;17.062;2023-04-24T14:32:33;4.63;;;2.80;;
18280;SDS011;9266;51.132;17.062;2023-04-24T14:35:01;5.47;;;3.40;;
18280;SDS011;9266;51.132;17.062;2023-04-24T14:37:29;6.37;;;3.30;;
18280;SDS011;9266;51.132;17.062;2023-04-24T14:39:57;3.50;;;3.20;;
18280;SDS011;9266;51.132;17.062;2023-04-24T14:42:24;4.90;;;4.40;;
18280;SDS011;9266;51.132;17.062;2023-04-24T14:44:51;5.63;;;3.67;;
18280;SDS011;9266;51.132;17.062;2023-04-24T14:47:18;7.33;;;3.37;;